Latest Weather Observations for Victoria River Downs

IDD60801

Issued at 9:01 pm CST Monday 6 July 2015 (issued every 30 minutes, with the page automatically refreshed every 10 minutes)

About weather observations | Map of weather stations | Latest weather observations for NT | Other Formats
Station Details ID: 014825 Name: VICTORIA RIVER DOWNS Lat: -16.40 Lon: 131.01 Height: 88.5 m
Data from the previous 72 hours. | See also: Recent months at Victoria River Downs
Date/Time
CST
Temp
°C
App
Temp
°C
Dew
Point
Rel
Hum
%
Delta-T
°C
Wind Press
QNH
hPa
Press
MSL
hPa
Rain
since 9 am
mm
Dir
 
Spd
km/h
Gust
km/h
Spd
kts
Gust
kts
06/09:00pm 23.3 22.6 8.6 39 7.9 E 2 6 1 3 1014.4 1014.0 0.0
06/08:30pm 23.7 22.2 8.5 38 8.1 ESE 6 7 3 4 1014.1 - 0.0
06/08:00pm 24.4 23.0 8.8 37 8.4 E 6 7 3 4 1013.9 - 0.0
06/07:30pm 25.2 24.3 7.8 33 9.3 NE 2 6 1 3 1013.5 - 0.0
06/07:00pm 26.0 24.0 7.1 30 10.0 NE 7 9 4 5 1013.2 - 0.0
06/06:30pm 27.4 25.6 7.8 29 10.6 ENE 7 9 4 5 1013.1 - 0.0
06/06:00pm 28.6 26.1 6.7 25 11.7 NE 9 13 5 7 1012.8 1012.5 0.0
06/05:30pm 29.2 26.3 6.6 24 12.1 ESE 11 19 6 10 1012.5 - 0.0
06/05:00pm 30.0 26.7 6.6 23 12.6 E 13 19 7 10 1012.5 - 0.0
06/04:30pm 29.8 26.7 7.1 24 12.3 E 13 20 7 11 1012.4 - 0.0
06/04:00pm 30.0 27.1 6.6 23 12.6 ENE 11 17 6 9 1012.6 - 0.0
06/03:30pm 30.1 27.5 6.1 22 12.8 E 9 17 5 9 1012.7 - 0.0
06/03:00pm 30.6 28.1 6.5 22 13.0 ENE 9 24 5 13 1013.0 1012.7 0.0
06/02:30pm 30.2 27.4 6.8 23 12.6 ENE 11 19 6 10 1013.3 - 0.0
06/02:00pm 29.7 27.2 6.4 23 12.4 ESE 9 17 5 9 1013.8 - 0.0
06/01:30pm 29.3 26.4 6.7 24 12.1 E 11 15 6 8 1014.3 - 0.0
06/01:00pm 28.9 26.1 6.9 25 11.8 E 11 26 6 14 1015.0 - 0.0
06/12:30pm 28.1 24.5 5.0 23 11.9 E 13 24 7 13 1015.7 - 0.0
06/12:00pm 27.2 22.8 4.9 24 11.4 ENE 17 24 9 13 1016.1 1015.9 0.0
06/11:30am 26.4 22.4 4.8 25 11.0 E 15 24 8 13 1016.5 - 0.0
06/11:00am 25.6 21.8 4.1 25 10.8 E 13 19 7 10 1016.8 - 0.0
06/10:30am 23.8 20.0 3.7 27 9.8 E 13 19 7 10 1017.2 - 0.0
06/10:00am 22.2 19.1 3.8 30 8.9 SE 9 17 5 9 1017.3 - 0.0
06/09:30am 21.1 18.4 2.4 29 8.8 SSE 6 11 3 6 1017.2 - 0.0
06/09:20am 20.8 19.1 4.0 33 8.1 WSW 2 6 1 3 1017.2 - 0.0
06/09:00am 18.3 15.5 3.4 37 7.0 WSW 7 9 4 5 1017.2 1017.0 0.0
06/08:30am 15.8 13.1 3.6 44 5.6 WNW 7 7 4 4 1016.8 - 0.0
06/08:29am 15.6 12.8 3.4 44 5.6 WNW 7 7 4 4 1016.8 - 0.0
06/08:00am 12.1 9.4 3.6 56 3.8 W 7 9 4 5 1016.5 - 0.0
06/07:30am 10.6 7.7 2.7 58 3.4 W 7 7 4 4 1016.3 - 0.0
06/07:00am 10.5 7.6 2.8 59 3.3 W 7 7 4 4 1016.1 - 0.0
06/06:30am 11.0 8.2 2.3 55 3.7 WNW 6 6 3 3 1015.9 - 0.0
06/06:00am 11.9 9.2 2.4 52 4.1 W 6 7 3 4 1015.8 1015.6 0.0
06/05:30am 12.2 8.9 2.6 52 4.2 W 9 9 5 5 1015.8 - 0.0
06/05:00am 12.0 9.1 2.5 52 4.1 WNW 7 9 4 5 1015.6 - 0.0
06/04:30am 12.6 9.9 2.5 50 4.4 W 6 7 3 4 1015.3 - 0.0
06/04:00am 13.5 10.6 2.4 47 4.9 WNW 7 9 4 5 1015.2 - 0.0
06/03:30am 13.6 10.7 2.5 47 4.9 WNW 7 9 4 5 1014.9 - 0.0
06/03:00am 13.6 10.3 2.5 47 4.9 WNW 9 9 5 5 1015.0 1014.7 0.0
06/02:30am 14.1 11.3 3.0 47 5.0 WNW 7 7 4 4 1015.2 - 0.0
06/02:00am 13.8 11.8 2.4 46 5.0 W 2 7 1 4 1015.3 - 0.0
06/01:30am 14.0 11.9 3.8 50 4.7 W 4 7 2 4 1015.2 - 0.0
06/01:00am 14.2 11.7 3.9 50 4.7 W 6 7 3 4 1015.3 - 0.0
06/12:30am 14.4 11.7 3.5 48 5.0 W 7 7 4 4 1015.4 - 0.0
06/12:00am 14.4 11.7 3.8 49 4.8 WNW 7 9 4 5 1015.4 1015.1 0.0
 
Date/Time
CST
Temp
°C
App
Temp
°C
Dew
Point
Rel
Hum
%
Delta-T
°C
Wind Press
QNH
hPa
Press
MSL
hPa
Rain
since 9 am
mm
Dir
 
Spd
km/h
Gust
km/h
Spd
kts
Gust
kts
05/11:30pm 14.7 13.5 4.4 50 4.8 CALM 0 0 0 0 1015.6 - 0.0
05/11:00pm 14.8 13.6 4.5 50 4.8 CALM 0 6 0 3 1015.7 - 0.0
05/10:30pm 16.2 13.9 5.8 50 5.0 WNW 7 7 4 4 1015.8 - 0.0
05/10:00pm 15.8 14.6 4.8 48 5.2 CALM 0 0 0 0 1015.8 - 0.0
05/09:30pm 16.8 15.7 5.1 46 5.6 CALM 0 0 0 0 1015.7 - 0.0
05/09:00pm 17.3 16.2 5.3 45 5.8 CALM 0 7 0 4 1015.4 1015.1 0.0
05/08:30pm 18.5 17.4 6.7 46 5.9 NW 2 6 1 3 1015.2 - 0.0
05/08:00pm 19.5 18.3 6.3 42 6.6 WSW 2 7 1 4 1014.9 - 0.0
05/07:30pm 21.5 19.8 8.4 43 6.9 SW 7 7 4 4 1014.5 - 0.0
05/07:00pm 22.7 20.9 5.2 32 8.8 W 4 7 2 4 1014.3 - 0.0
05/06:30pm 25.0 24.0 5.7 29 9.9 CALM 0 0 0 0 1014.0 - 0.0
05/06:00pm 27.6 26.4 4.6 23 11.8 CALM 0 0 0 0 1013.9 1013.6 0.0
05/05:30pm 28.2 25.7 4.5 22 12.1 S 7 11 4 6 1013.8 - 0.0
05/05:00pm 28.6 25.1 3.5 20 12.7 ENE 11 15 6 8 1013.8 - 0.0
05/04:30pm 28.5 25.5 4.1 21 12.4 E 9 19 5 10 1013.9 - 0.0
05/04:00pm 28.6 25.9 3.5 20 12.7 E 7 13 4 7 1013.9 - 0.0
05/03:30pm 28.7 25.7 4.2 21 12.5 SSE 9 15 5 8 1014.0 - 0.0
05/03:00pm 28.3 24.9 3.9 21 12.4 ESE 11 20 6 11 1014.3 1014.0 0.0
05/02:30pm 28.0 24.7 4.3 22 12.1 E 11 17 6 9 1014.8 - 0.0
05/02:00pm 28.1 24.9 5.0 23 11.9 NE 11 19 6 10 1015.3 - 0.0
05/01:30pm 27.0 23.6 4.1 23 11.6 E 11 17 6 9 1015.7 - 0.0
05/01:00pm 27.0 24.2 5.3 25 11.2 ESE 9 15 5 8 1016.4 - 0.0
05/12:30pm 26.0 22.7 4.5 25 10.9 E 11 20 6 11 1016.9 - 0.0
05/12:00pm 25.4 22.5 4.5 26 10.5 E 9 17 5 9 1017.5 1017.3 0.0
05/11:30am 24.3 20.9 4.1 27 10.0 SE 11 15 6 8 1018.0 - 0.0
05/11:00am 22.6 19.0 2.7 27 9.5 E 11 17 6 9 1018.3 - 0.0
05/10:30am 21.3 17.6 2.1 28 9.0 ESE 11 19 6 10 1018.6 - 0.0
05/10:00am 19.3 15.2 2.2 32 7.9 SE 13 17 7 9 1018.7 - 0.0
05/09:30am 18.6 15.1 1.2 31 7.8 SE 9 15 5 8 1018.7 - 0.0
05/09:00am 16.8 13.9 1.3 35 6.9 SSW 6 9 3 5 1018.7 1018.5 0.0
05/08:30am 14.1 12.0 1.7 43 5.4 SW 2 6 1 3 1018.7 - 0.0
05/08:26am 13.6 11.5 1.9 45 5.1 WSW 2 7 1 4 1018.6 - 0.0
05/08:00am 10.6 8.8 0.9 51 4.0 CALM 0 4 0 2 1018.4 - 0.0
05/07:30am 8.6 5.5 0.3 56 3.3 WSW 6 9 3 5 1018.1 - 0.0
05/07:00am 8.0 4.7 -0.2 56 3.2 WSW 7 7 4 4 1017.8 - 0.0
05/06:30am 8.6 5.5 0.1 55 3.4 W 6 7 3 4 1017.5 - 0.0
05/06:00am 8.6 5.4 -0.2 54 3.5 N 6 7 3 4 1017.3 1017.1 0.0
05/05:30am 9.0 5.6 -0.3 52 3.7 W 7 9 4 5 1016.7 - 0.0
05/05:00am 9.3 5.8 -1.1 48 4.1 W 7 9 4 5 1016.4 - 0.0
05/04:30am 9.7 6.3 -0.5 49 4.1 W 7 7 4 4 1016.3 - 0.0
05/04:00am 8.9 5.5 -0.7 51 3.8 NW 7 9 4 5 1016.1 - 0.0
05/03:30am 9.6 7.5 -0.9 48 4.1 CALM 0 0 0 0 1016.1 - 0.0
05/03:00am 9.6 7.5 -0.6 49 4.0 CALM 0 0 0 0 1016.4 1016.1 0.0
05/02:30am 10.1 8.0 -0.7 47 4.3 CALM 0 0 0 0 1016.5 - 0.0
05/02:00am 10.5 8.5 -0.3 47 4.4 CALM 0 0 0 0 1016.5 - 0.0
05/01:30am 10.6 8.6 -0.2 47 4.4 CALM 0 7 0 4 1016.4 - 0.0
05/01:00am 11.1 9.1 -0.4 45 4.7 CALM 0 0 0 0 1016.3 - 0.0
05/12:00am 16.6 13.5 -0.1 32 7.2 SSE 6 7 3 4 1016.3 1016.0 0.0
 
Date/Time
CST
Temp
°C
App
Temp
°C
Dew
Point
Rel
Hum
%
Delta-T
°C
Wind Press
QNH
hPa
Press
MSL
hPa
Rain
since 9 am
mm
Dir
 
Spd
km/h
Gust
km/h
Spd
kts
Gust
kts
04/11:30pm 16.9 13.7 -0.3 31 7.4 SE 6 7 3 4 1016.4 - 0.0
04/11:00pm 16.7 12.9 -0.9 30 7.4 SSE 9 11 5 6 1016.4 - 0.0
04/10:30pm 16.9 13.9 0.5 33 7.2 S 6 9 3 5 1016.5 - 0.0
04/10:00pm 17.9 14.5 -0.8 28 8.0 SSE 7 13 4 7 1016.2 - 0.0
04/09:30pm 19.0 15.6 -0.9 26 8.6 SSE 7 9 4 5 1016.2 - 0.0
04/09:00pm 19.7 16.3 -0.9 25 8.9 SSE 7 11 4 6 1015.9 1015.7 0.0
04/08:30pm 19.9 16.1 -0.7 25 9.0 SSE 9 11 5 6 1015.6 - 0.0
04/08:00pm 20.6 17.1 -1.2 23 9.5 SSE 7 9 4 5 1015.1 - 0.0
04/07:30pm 21.3 17.8 -1.3 22 9.9 SSE 7 11 4 6 1014.9 - 0.0
04/07:00pm 22.7 18.9 -0.7 21 10.5 SSE 9 13 5 7 1014.6 - 0.0
04/06:30pm 23.7 19.8 -1.3 19 11.2 SSE 9 13 5 7 1014.3 - 0.0
04/06:00pm 25.3 21.4 -1.5 17 12.1 SSE 9 15 5 8 1014.2 1013.8 0.0
04/05:30pm 26.1 21.5 -0.8 17 12.3 S 13 24 7 13 1013.9 - 0.0
04/05:00pm 26.8 22.4 0.5 18 12.4 SSE 13 24 7 13 1013.8 - 0.0
04/04:30pm 26.9 21.9 -1.0 16 12.8 SSE 15 26 8 14 1013.7 - 0.0
04/04:00pm 27.3 23.1 -0.7 16 13.0 S 11 20 6 11 1013.7 - 0.0
04/03:30pm 27.3 22.9 0.1 17 12.8 S 13 22 7 12 1013.7 - 0.0
04/03:00pm 27.0 22.5 -0.1 17 12.7 SSE 13 24 7 13 1014.0 1013.7 0.0
04/02:30pm 26.4 23.0 1.7 20 11.9 S 9 19 5 10 1014.4 - 0.0
04/02:00pm 26.0 21.4 1.3 20 11.8 S 15 22 8 12 1014.9 - 0.0
04/01:30pm 26.2 22.2 2.8 22 11.5 SSW 13 24 7 13 1015.6 - 0.0
04/01:00pm 25.3 21.8 1.4 21 11.4 ESE 9 15 5 8 1016.2 - 0.0
04/12:30pm 25.5 22.5 2.2 22 11.3 SE 7 17 4 9 1016.8 - 0.0
04/12:00pm 24.1 20.4 2.3 24 10.4 ENE 11 15 6 8 1017.6 1017.4 0.0
04/11:30am 23.9 20.5 3.8 27 9.9 E 11 19 6 10 1018.0 - 0.0
04/11:00am 21.7 18.4 2.4 28 9.1 ESE 9 17 5 9 1018.5 - 0.0
04/10:30am 20.7 18.0 2.5 30 8.5 E 6 11 3 6 1018.8 - 0.0
04/10:00am 19.5 16.5 1.9 31 8.1 ESE 7 13 4 7 1019.1 - 0.0
04/09:30am 18.2 14.8 2.1 34 7.3 S 9 13 5 7 1019.2 - 0.0
04/09:00am 16.8 14.8 2.4 38 6.5 SSW 2 7 1 4 1019.0 1018.7 0.0
04/08:30am 14.2 12.3 3.1 47 5.0 W 2 6 1 3 1018.7 - 0.0
04/08:00am 10.8 8.3 3.6 61 3.2 W 6 7 3 4 1018.4 - 0.0
04/07:30am 9.4 6.5 2.7 63 2.9 WSW 7 9 4 5 1018.1 - 0.0
04/07:00am 10.1 7.8 2.9 61 3.1 WSW 4 7 2 4 1017.8 - 0.0
04/06:30am 9.5 8.0 3.0 64 2.8 CALM 0 0 0 0 1017.5 - 0.0
04/06:00am 9.7 8.2 3.2 64 2.8 CALM 0 0 0 0 1017.1 1016.9 0.0
04/05:30am 10.2 8.8 3.7 64 2.9 CALM 0 0 0 0 1017.1 - 0.0
04/05:00am 10.7 9.3 3.3 60 3.2 CALM 0 0 0 0 1017.0 - 0.0
04/04:30am 11.4 9.6 3.4 58 3.5 W 2 6 1 3 1016.7 - 0.0
04/04:00am 13.8 12.4 3.6 50 4.6 CALM 0 6 0 3 1016.6 - 0.0
04/03:30am 14.2 11.8 5.3 55 4.2 S 7 9 4 5 1016.9 - 0.0
04/03:00am 12.2 10.1 3.7 56 3.8 SW 4 9 2 5 1017.0 1016.8 0.0
04/02:30am 12.9 11.5 3.8 54 4.1 CALM 0 0 0 0 1017.0 - 0.0
04/02:00am 13.5 12.3 4.4 54 4.2 CALM 0 0 0 0 1017.0 - 0.0
04/01:30am 14.4 13.0 3.5 48 5.0 CALM 0 0 0 0 1017.0 - 0.0
04/01:00am 16.1 14.9 4.5 46 5.5 CALM 0 0 0 0 1017.2 - 0.0
04/12:30am 18.2 15.2 4.0 39 6.7 SE 9 11 5 6 1017.3 - 0.0
04/12:00am 18.5 15.7 5.0 41 6.5 SSE 9 13 5 7 1017.4 1017.2 0.0
 
Date/Time
CST
Temp
°C
App
Temp
°C
Dew
Point
Rel
Hum
%
Delta-T
°C
Wind Press
QNH
hPa
Press
MSL
hPa
Rain
since 9 am
mm
Dir
 
Spd
km/h
Gust
km/h
Spd
kts
Gust
kts
03/11:30pm 18.8 16.3 4.6 39 6.8 SE 7 9 4 5 1017.5 - 0.0
03/11:00pm 19.2 16.3 4.9 39 6.9 SSE 9 11 5 6 1017.5 - 0.0
03/10:30pm 19.7 17.4 5.7 40 6.9 SSE 7 9 4 5 1017.4 - 0.0
03/10:00pm 20.6 18.2 5.4 37 7.5 SSE 7 9 4 5 1017.3 - 0.0
03/09:30pm 21.2 18.8 5.1 35 8.0 SSE 7 11 4 6 1017.2 - 0.0

Other Formats:

Comma delimited format used in spreadsheet applications
http://www.bom.gov.au/fwo/IDD60801/IDD60801.94232.axf

JavaScript Object Notation format (JSON) in row-major order
http://www.bom.gov.au/fwo/IDD60801/IDD60801.94232.json